岡山グライダークラブ活動状況掲示板あなたは無料カウンター人目の訪問者です

岡山グライダークラブ
岡山市浦安南町639-1 岡南飛行場
 使用機:シャイベ式 SF25C型 ファルケ   JA2330
      ヴァレンティン式17E型 タイフーン  JA2342
 練習日:毎日曜日  クラブルーム:電話 086-265-1810
この掲示板は岡山グライダークラブの活動状況をお知らせする掲示板です。
!!!この掲示板は投稿規制をしています。!!!
クラブ関連各種情報は 岡山グライダークラブクラブルーム      を       .
  ブリーフイング情報は  岡山グライダークラブブリーフィングルーム  をご覧下さい。 .
※写真はクリックすると拡大して見ることが出来ます。
岡南飛行場へのアクセス等は 岡南飛行場管理事務所 をご覧ください。
クラブの ホームページ ができました。

 
10月06日
by OGC at 2019/10/6(日) 22:37:17 No.20191006223259  削除コメント
1024 x 768 x 88,822バイト
No.1

10月06日
本日の参加者
  会員      14名
  その他      0名


@本日の様子




METAR
RJOB 060000Z 01009KT 340V040 9999 FEW015 SCT025 BKN060 21/16 Q1020
RJOT 060000Z 33005KT 280V030 9999 FEW015 SCT025 BKN040 22/17 Q1020
RJOA 060000Z 36008KT 330V040 9999 FEW015 SCT020 BKN080 20/13 Q1021
TAF
RJOB 052307Z 0600/0706 02010KT 9999 FEW025 BKN045
RJOT 052305Z 0600/0706 30004KT 9999 FEW025 BKN040
         BECMG 0600/0602 06008KT
RJOA 052306Z 0600/0706 08006KT 9999 FEW025 BKN040

本日は、朝、小雨がパラパラしましたが、その後、日差しが差し込み積雲がポコポコと出来、みんな、サーマルを探して飛びまわっていました。

解散    18:00

1番機  11:20離陸 撤収機  17:10着陸 

SF25C JA2330 ファルケ     09Flt.3h45min  
17E   JA2342 タイフーン    03Flt.1h15min  
合計                    12Flt.5h00min


    << 戻る || ホームページ || 最新の掲示板へ